sensor_id;sensor_type;location;lat;lon;timestamp;P1;durP1;ratioP1;P2;durP2;ratioP2
10827;SDS011;5467;59.334;13.512;2022-12-07T00:01:17;0.80;;;0.80;;
10827;SDS011;5467;59.334;13.512;2022-12-07T00:03:46;0.70;;;0.70;;
10827;SDS011;5467;59.334;13.512;2022-12-07T00:06:14;0.70;;;0.70;;
10827;SDS011;5467;59.334;13.512;2022-12-07T00:08:42;0.80;;;0.80;;
10827;SDS011;5467;59.334;13.512;2022-12-07T00:11:12;0.80;;;0.80;;
10827;SDS011;5467;59.334;13.512;2022-12-07T00:13:41;0.80;;;0.80;;
10827;SDS011;5467;59.334;13.512;2022-12-07T00:16:09;0.70;;;0.70;;
10827;SDS011;5467;59.334;13.512;2022-12-07T00:18:37;0.80;;;0.80;;
10827;SDS011;5467;59.334;13.512;2022-12-07T00:21:05;0.70;;;0.70;;
10827;SDS011;5467;59.334;13.512;2022-12-07T00:23:33;0.83;;;0.83;;
10827;SDS011;5467;59.334;13.512;2022-12-07T00:26:04;0.70;;;0.70;;
10827;SDS011;5467;59.334;13.512;2022-12-07T00:28:33;0.80;;;0.80;;
10827;SDS011;5467;59.334;13.512;2022-12-07T00:31:01;0.70;;;0.70;;
10827;SDS011;5467;59.334;13.512;2022-12-07T00:33:32;0.70;;;0.70;;
10827;SDS011;5467;59.334;13.512;2022-12-07T00:36:00;0.70;;;0.70;;
10827;SDS011;5467;59.334;13.512;2022-12-07T00:38:28;0.80;;;0.80;;
10827;SDS011;5467;59.334;13.512;2022-12-07T00:40:56;0.70;;;0.70;;
10827;SDS011;5467;59.334;13.512;2022-12-07T00:43:24;0.70;;;0.70;;
10827;SDS011;5467;59.334;13.512;2022-12-07T00:45:52;0.70;;;0.70;;
10827;SDS011;5467;59.334;13.512;2022-12-07T00:48:20;0.70;;;0.70;;
10827;SDS011;5467;59.334;13.512;2022-12-07T00:50:47;0.70;;;0.70;;
10827;SDS011;5467;59.334;13.512;2022-12-07T00:53:14;0.80;;;0.80;;
10827;SDS011;5467;59.334;13.512;2022-12-07T00:55:42;0.80;;;0.80;;
10827;SDS011;5467;59.334;13.512;2022-12-07T00:58:10;0.80;;;0.80;;
10827;SDS011;5467;59.334;13.512;2022-12-07T01:00:38;0.70;;;0.70;;
10827;SDS011;5467;59.334;13.512;2022-12-07T01:03:08;0.70;;;0.70;;
10827;SDS011;5467;59.334;13.512;2022-12-07T01:05:37;0.80;;;0.80;;
10827;SDS011;5467;59.334;13.512;2022-12-07T01:08:04;0.80;;;0.80;;
10827;SDS011;5467;59.334;13.512;2022-12-07T01:10:31;0.80;;;0.80;;
10827;SDS011;5467;59.334;13.512;2022-12-07T01:12:58;0.80;;;0.80;;
10827;SDS011;5467;59.334;13.512;2022-12-07T01:15:26;0.80;;;0.80;;
10827;SDS011;5467;59.334;13.512;2022-12-07T01:17:53;0.73;;;0.73;;
10827;SDS011;5467;59.334;13.512;2022-12-07T01:20:22;0.80;;;0.80;;
10827;SDS011;5467;59.334;13.512;2022-12-07T01:22:49;0.80;;;0.80;;
10827;SDS011;5467;59.334;13.512;2022-12-07T01:25:16;0.70;;;0.70;;
10827;SDS011;5467;59.334;13.512;2022-12-07T01:27:43;0.70;;;0.70;;
10827;SDS011;5467;59.334;13.512;2022-12-07T01:30:10;0.70;;;0.70;;
10827;SDS011;5467;59.334;13.512;2022-12-07T01:32:38;0.80;;;0.80;;
10827;SDS011;5467;59.334;13.512;2022-12-07T01:35:05;0.70;;;0.70;;
10827;SDS011;5467;59.334;13.512;2022-12-07T01:37:35;0.73;;;0.73;;
10827;SDS011;5467;59.334;13.512;2022-12-07T01:40:02;0.80;;;0.80;;
10827;SDS011;5467;59.334;13.512;2022-12-07T01:42:30;0.70;;;0.70;;
10827;SDS011;5467;59.334;13.512;2022-12-07T01:48:04;0.70;;;0.70;;
10827;SDS011;5467;59.334;13.512;2022-12-07T01:50:33;0.70;;;0.70;;
10827;SDS011;5467;59.334;13.512;2022-12-07T01:53:03;0.80;;;0.80;;
10827;SDS011;5467;59.334;13.512;2022-12-07T01:55:34;0.80;;;0.80;;
10827;SDS011;5467;59.334;13.512;2022-12-07T01:58:04;0.70;;;0.70;;
10827;SDS011;5467;59.334;13.512;2022-12-07T02:00:31;0.80;;;0.80;;
10827;SDS011;5467;59.334;13.512;2022-12-07T02:03:00;0.70;;;0.70;;
10827;SDS011;5467;59.334;13.512;2022-12-07T02:05:32;0.80;;;0.80;;
10827;SDS011;5467;59.334;13.512;2022-12-07T02:08:02;0.80;;;0.80;;
10827;SDS011;5467;59.334;13.512;2022-12-07T02:10:31;0.80;;;0.80;;
10827;SDS011;5467;59.334;13.512;2022-12-07T02:12:59;0.80;;;0.80;;
10827;SDS011;5467;59.334;13.512;2022-12-07T02:15:33;0.77;;;0.77;;
10827;SDS011;5467;59.334;13.512;2022-12-07T02:18:07;0.70;;;0.70;;
10827;SDS011;5467;59.334;13.512;2022-12-07T02:20:39;0.70;;;0.70;;
10827;SDS011;5467;59.334;13.512;2022-12-07T02:23:23;0.80;;;0.80;;
10827;SDS011;5467;59.334;13.512;2022-12-07T02:26:12;0.80;;;0.80;;
10827;SDS011;5467;59.334;13.512;2022-12-07T02:29:08;0.80;;;0.80;;
10827;SDS011;5467;59.334;13.512;2022-12-07T02:31:42;0.70;;;0.70;;
10827;SDS011;5467;59.334;13.512;2022-12-07T02:34:14;0.70;;;0.70;;
10827;SDS011;5467;59.334;13.512;2022-12-07T02:36:51;0.70;;;0.70;;
10827;SDS011;5467;59.334;13.512;2022-12-07T02:39:24;0.70;;;0.70;;
10827;SDS011;5467;59.334;13.512;2022-12-07T02:41:58;0.70;;;0.70;;
10827;SDS011;5467;59.334;13.512;2022-12-07T02:44:30;0.70;;;0.70;;
10827;SDS011;5467;59.334;13.512;2022-12-07T02:47:00;0.70;;;0.70;;
10827;SDS011;5467;59.334;13.512;2022-12-07T02:49:29;0.70;;;0.70;;
10827;SDS011;5467;59.334;13.512;2022-12-07T02:51:57;0.73;;;0.73;;
10827;SDS011;5467;59.334;13.512;2022-12-07T02:54:24;0.80;;;0.80;;
10827;SDS011;5467;59.334;13.512;2022-12-07T02:56:52;0.80;;;0.80;;
10827;SDS011;5467;59.334;13.512;2022-12-07T02:59:32;0.70;;;0.70;;
10827;SDS011;5467;59.334;13.512;2022-12-07T03:02:10;0.70;;;0.70;;
10827;SDS011;5467;59.334;13.512;2022-12-07T03:04:45;0.80;;;0.80;;
10827;SDS011;5467;59.334;13.512;2022-12-07T03:07:21;0.80;;;0.80;;
10827;SDS011;5467;59.334;13.512;2022-12-07T03:09:53;0.80;;;0.80;;
10827;SDS011;5467;59.334;13.512;2022-12-07T03:12:28;0.70;;;0.70;;
10827;SDS011;5467;59.334;13.512;2022-12-07T03:15:01;0.70;;;0.70;;
10827;SDS011;5467;59.334;13.512;2022-12-07T03:17:32;0.80;;;0.80;;
10827;SDS011;5467;59.334;13.512;2022-12-07T03:20:04;0.70;;;0.70;;
10827;SDS011;5467;59.334;13.512;2022-12-07T03:22:34;0.70;;;0.70;;
10827;SDS011;5467;59.334;13.512;2022-12-07T03:25:05;1.33;;;1.23;;
10827;SDS011;5467;59.334;13.512;2022-12-07T03:27:35;0.70;;;0.70;;
10827;SDS011;5467;59.334;13.512;2022-12-07T03:30:09;0.80;;;0.80;;
10827;SDS011;5467;59.334;13.512;2022-12-07T03:32:40;0.70;;;0.70;;
10827;SDS011;5467;59.334;13.512;2022-12-07T03:35:12;0.70;;;0.70;;
10827;SDS011;5467;59.334;13.512;2022-12-07T03:37:43;0.70;;;0.70;;
10827;SDS011;5467;59.334;13.512;2022-12-07T03:40:14;0.70;;;0.70;;
10827;SDS011;5467;59.334;13.512;2022-12-07T03:42:47;0.60;;;0.60;;
10827;SDS011;5467;59.334;13.512;2022-12-07T03:45:16;0.70;;;0.70;;
10827;SDS011;5467;59.334;13.512;2022-12-07T03:47:45;0.70;;;0.70;;
10827;SDS011;5467;59.334;13.512;2022-12-07T03:50:19;0.70;;;0.70;;
10827;SDS011;5467;59.334;13.512;2022-12-07T03:52:53;0.70;;;0.70;;
10827;SDS011;5467;59.334;13.512;2022-12-07T03:55:24;0.60;;;0.60;;
10827;SDS011;5467;59.334;13.512;2022-12-07T03:57:56;0.70;;;0.70;;
10827;SDS011;5467;59.334;13.512;2022-12-07T04:00:27;0.70;;;0.70;;
10827;SDS011;5467;59.334;13.512;2022-12-07T04:02:54;0.60;;;0.60;;
10827;SDS011;5467;59.334;13.512;2022-12-07T04:05:22;0.70;;;0.70;;
10827;SDS011;5467;59.334;13.512;2022-12-07T04:07:49;0.60;;;0.60;;
10827;SDS011;5467;59.334;13.512;2022-12-07T04:10:17;0.77;;;0.77;;
10827;SDS011;5467;59.334;13.512;2022-12-07T04:12:44;0.70;;;0.70;;
10827;SDS011;5467;59.334;13.512;2022-12-07T04:15:11;0.67;;;0.67;;
10827;SDS011;5467;59.334;13.512;2022-12-07T04:17:40;0.70;;;0.70;;
10827;SDS011;5467;59.334;13.512;2022-12-07T04:20:07;0.70;;;0.70;;
10827;SDS011;5467;59.334;13.512;2022-12-07T04:22:35;0.80;;;0.80;;
10827;SDS011;5467;59.334;13.512;2022-12-07T04:25:02;0.70;;;0.70;;
10827;SDS011;5467;59.334;13.512;2022-12-07T04:27:30;0.70;;;0.70;;
10827;SDS011;5467;59.334;13.512;2022-12-07T04:29:57;0.70;;;0.70;;
10827;SDS011;5467;59.334;13.512;2022-12-07T04:32:24;0.90;;;0.90;;
10827;SDS011;5467;59.334;13.512;2022-12-07T04:34:52;0.70;;;0.70;;
10827;SDS011;5467;59.334;13.512;2022-12-07T04:37:19;0.70;;;0.70;;
10827;SDS011;5467;59.334;13.512;2022-12-07T04:39:46;0.70;;;0.70;;
10827;SDS011;5467;59.334;13.512;2022-12-07T04:42:13;0.70;;;0.70;;
10827;SDS011;5467;59.334;13.512;2022-12-07T04:44:40;0.70;;;0.70;;
10827;SDS011;5467;59.334;13.512;2022-12-07T04:47:07;0.70;;;0.70;;
10827;SDS011;5467;59.334;13.512;2022-12-07T04:49:34;0.80;;;0.80;;
10827;SDS011;5467;59.334;13.512;2022-12-07T04:52:02;0.77;;;0.77;;
10827;SDS011;5467;59.334;13.512;2022-12-07T04:54:30;0.77;;;0.77;;
10827;SDS011;5467;59.334;13.512;2022-12-07T04:56:56;0.70;;;0.70;;
10827;SDS011;5467;59.334;13.512;2022-12-07T04:59:23;0.83;;;0.83;;
10827;SDS011;5467;59.334;13.512;2022-12-07T05:01:50;0.80;;;0.80;;
10827;SDS011;5467;59.334;13.512;2022-12-07T05:04:17;0.80;;;0.80;;
10827;SDS011;5467;59.334;13.512;2022-12-07T05:06:44;0.70;;;0.70;;
10827;SDS011;5467;59.334;13.512;2022-12-07T05:09:13;0.80;;;0.80;;
10827;SDS011;5467;59.334;13.512;2022-12-07T05:11:40;1.47;;;1.37;;
10827;SDS011;5467;59.334;13.512;2022-12-07T05:14:08;1.00;;;1.00;;
10827;SDS011;5467;59.334;13.512;2022-12-07T05:16:38;0.70;;;0.70;;
10827;SDS011;5467;59.334;13.512;2022-12-07T05:19:05;0.80;;;0.80;;
10827;SDS011;5467;59.334;13.512;2022-12-07T05:21:33;0.77;;;0.77;;
10827;SDS011;5467;59.334;13.512;2022-12-07T05:24:00;0.80;;;0.80;;
10827;SDS011;5467;59.334;13.512;2022-12-07T05:26:29;0.70;;;0.70;;
10827;SDS011;5467;59.334;13.512;2022-12-07T05:28:56;0.97;;;0.97;;
10827;SDS011;5467;59.334;13.512;2022-12-07T05:31:24;1.10;;;1.03;;
10827;SDS011;5467;59.334;13.512;2022-12-07T05:33:53;0.70;;;0.70;;
10827;SDS011;5467;59.334;13.512;2022-12-07T05:36:21;0.70;;;0.70;;
10827;SDS011;5467;59.334;13.512;2022-12-07T05:38:48;0.90;;;0.90;;
10827;SDS011;5467;59.334;13.512;2022-12-07T05:41:16;0.70;;;0.70;;
10827;SDS011;5467;59.334;13.512;2022-12-07T05:44:03;0.90;;;0.90;;
10827;SDS011;5467;59.334;13.512;2022-12-07T05:46:30;0.77;;;0.77;;
10827;SDS011;5467;59.334;13.512;2022-12-07T05:48:57;1.40;;;1.30;;
10827;SDS011;5467;59.334;13.512;2022-12-07T05:51:24;1.30;;;1.20;;
10827;SDS011;5467;59.334;13.512;2022-12-07T05:53:51;1.07;;;1.07;;
10827;SDS011;5467;59.334;13.512;2022-12-07T05:56:19;1.20;;;1.10;;
10827;SDS011;5467;59.334;13.512;2022-12-07T05:58:46;1.80;;;1.70;;
10827;SDS011;5467;59.334;13.512;2022-12-07T06:01:31;1.60;;;1.50;;
10827;SDS011;5467;59.334;13.512;2022-12-07T06:03:58;1.37;;;1.27;;
10827;SDS011;5467;59.334;13.512;2022-12-07T06:06:25;2.53;;;1.10;;
10827;SDS011;5467;59.334;13.512;2022-12-07T06:08:52;1.13;;;1.10;;
10827;SDS011;5467;59.334;13.512;2022-12-07T06:11:19;1.27;;;1.17;;
10827;SDS011;5467;59.334;13.512;2022-12-07T06:14:04;1.00;;;1.00;;
10827;SDS011;5467;59.334;13.512;2022-12-07T06:16:32;0.90;;;0.90;;
10827;SDS011;5467;59.334;13.512;2022-12-07T06:18:59;1.00;;;1.00;;
10827;SDS011;5467;59.334;13.512;2022-12-07T06:21:26;1.17;;;1.17;;
10827;SDS011;5467;59.334;13.512;2022-12-07T06:23:53;0.90;;;0.90;;
10827;SDS011;5467;59.334;13.512;2022-12-07T06:26:20;0.90;;;0.90;;
10827;SDS011;5467;59.334;13.512;2022-12-07T06:28:47;0.90;;;0.90;;
10827;SDS011;5467;59.334;13.512;2022-12-07T06:31:14;0.90;;;0.90;;
10827;SDS011;5467;59.334;13.512;2022-12-07T06:33:42;1.23;;;1.10;;
10827;SDS011;5467;59.334;13.512;2022-12-07T06:36:10;1.37;;;1.10;;
10827;SDS011;5467;59.334;13.512;2022-12-07T06:38:37;0.97;;;0.97;;
10827;SDS011;5467;59.334;13.512;2022-12-07T06:41:04;1.40;;;1.30;;
10827;SDS011;5467;59.334;13.512;2022-12-07T06:43:32;1.10;;;1.10;;
10827;SDS011;5467;59.334;13.512;2022-12-07T06:45:59;1.40;;;1.30;;
10827;SDS011;5467;59.334;13.512;2022-12-07T06:48:26;1.20;;;1.20;;
10827;SDS011;5467;59.334;13.512;2022-12-07T06:50:54;1.50;;;1.40;;
10827;SDS011;5467;59.334;13.512;2022-12-07T06:53:21;0.90;;;0.90;;
10827;SDS011;5467;59.334;13.512;2022-12-07T06:55:49;1.00;;;0.97;;
10827;SDS011;5467;59.334;13.512;2022-12-07T06:58:16;1.00;;;1.00;;
10827;SDS011;5467;59.334;13.512;2022-12-07T07:00:43;1.37;;;1.33;;
10827;SDS011;5467;59.334;13.512;2022-12-07T07:03:10;1.47;;;1.37;;
10827;SDS011;5467;59.334;13.512;2022-12-07T07:05:38;1.23;;;1.13;;
10827;SDS011;5467;59.334;13.512;2022-12-07T07:08:07;1.23;;;1.23;;
10827;SDS011;5467;59.334;13.512;2022-12-07T07:10:34;1.60;;;1.50;;
10827;SDS011;5467;59.334;13.512;2022-12-07T07:13:01;1.50;;;1.40;;
10827;SDS011;5467;59.334;13.512;2022-12-07T07:15:29;3.00;;;1.63;;
10827;SDS011;5467;59.334;13.512;2022-12-07T07:17:56;1.53;;;1.43;;
10827;SDS011;5467;59.334;13.512;2022-12-07T07:20:23;1.20;;;1.20;;
10827;SDS011;5467;59.334;13.512;2022-12-07T07:22:50;1.00;;;1.00;;
10827;SDS011;5467;59.334;13.512;2022-12-07T07:25:21;1.00;;;1.00;;
10827;SDS011;5467;59.334;13.512;2022-12-07T07:27:48;0.90;;;0.90;;
10827;SDS011;5467;59.334;13.512;2022-12-07T07:30:15;1.10;;;1.10;;
10827;SDS011;5467;59.334;13.512;2022-12-07T07:32:42;1.00;;;1.00;;
10827;SDS011;5467;59.334;13.512;2022-12-07T07:35:09;0.90;;;0.90;;
10827;SDS011;5467;59.334;13.512;2022-12-07T07:37:36;1.00;;;1.00;;
10827;SDS011;5467;59.334;13.512;2022-12-07T07:40:03;1.00;;;1.00;;
10827;SDS011;5467;59.334;13.512;2022-12-07T07:42:32;1.17;;;1.13;;
10827;SDS011;5467;59.334;13.512;2022-12-07T07:44:59;0.90;;;0.90;;
10827;SDS011;5467;59.334;13.512;2022-12-07T07:47:26;0.80;;;0.80;;
10827;SDS011;5467;59.334;13.512;2022-12-07T07:49:54;0.83;;;0.83;;
10827;SDS011;5467;59.334;13.512;2022-12-07T07:52:21;1.10;;;1.10;;
10827;SDS011;5467;59.334;13.512;2022-12-07T07:54:48;1.10;;;1.00;;
10827;SDS011;5467;59.334;13.512;2022-12-07T07:57:16;0.90;;;0.90;;
10827;SDS011;5467;59.334;13.512;2022-12-07T07:59:44;1.00;;;1.00;;
10827;SDS011;5467;59.334;13.512;2022-12-07T08:02:13;0.93;;;0.93;;
10827;SDS011;5467;59.334;13.512;2022-12-07T08:04:41;1.83;;;1.50;;
10827;SDS011;5467;59.334;13.512;2022-12-07T08:07:08;1.10;;;1.10;;
10827;SDS011;5467;59.334;13.512;2022-12-07T08:09:35;0.90;;;0.90;;
10827;SDS011;5467;59.334;13.512;2022-12-07T08:12:02;0.90;;;0.90;;
10827;SDS011;5467;59.334;13.512;2022-12-07T08:14:30;1.17;;;1.17;;
10827;SDS011;5467;59.334;13.512;2022-12-07T08:16:58;1.00;;;1.00;;
10827;SDS011;5467;59.334;13.512;2022-12-07T08:19:28;0.83;;;0.83;;
10827;SDS011;5467;59.334;13.512;2022-12-07T08:21:55;1.00;;;1.00;;
10827;SDS011;5467;59.334;13.512;2022-12-07T08:24:23;0.80;;;0.80;;
10827;SDS011;5467;59.334;13.512;2022-12-07T08:26:51;0.90;;;0.90;;
10827;SDS011;5467;59.334;13.512;2022-12-07T08:29:18;0.80;;;0.80;;
10827;SDS011;5467;59.334;13.512;2022-12-07T08:31:45;0.90;;;0.90;;
10827;SDS011;5467;59.334;13.512;2022-12-07T08:34:14;0.90;;;0.90;;
10827;SDS011;5467;59.334;13.512;2022-12-07T08:36:41;1.00;;;1.00;;
10827;SDS011;5467;59.334;13.512;2022-12-07T08:39:08;1.20;;;1.10;;
10827;SDS011;5467;59.334;13.512;2022-12-07T08:41:35;0.97;;;0.97;;
10827;SDS011;5467;59.334;13.512;2022-12-07T08:44:02;0.90;;;0.90;;
10827;SDS011;5467;59.334;13.512;2022-12-07T08:46:30;1.07;;;1.07;;
10827;SDS011;5467;59.334;13.512;2022-12-07T08:49:02;0.90;;;0.90;;
10827;SDS011;5467;59.334;13.512;2022-12-07T08:51:33;1.20;;;1.10;;
10827;SDS011;5467;59.334;13.512;2022-12-07T08:54:00;1.53;;;1.33;;
10827;SDS011;5467;59.334;13.512;2022-12-07T08:56:31;0.97;;;0.97;;
10827;SDS011;5467;59.334;13.512;2022-12-07T08:58:58;1.00;;;1.00;;
10827;SDS011;5467;59.334;13.512;2022-12-07T09:01:25;0.90;;;0.90;;
10827;SDS011;5467;59.334;13.512;2022-12-07T09:03:53;0.90;;;0.90;;
10827;SDS011;5467;59.334;13.512;2022-12-07T09:06:19;0.90;;;0.90;;
10827;SDS011;5467;59.334;13.512;2022-12-07T09:08:49;1.00;;;1.00;;
10827;SDS011;5467;59.334;13.512;2022-12-07T09:11:20;0.90;;;0.90;;
10827;SDS011;5467;59.334;13.512;2022-12-07T09:13:47;0.80;;;0.80;;
10827;SDS011;5467;59.334;13.512;2022-12-07T09:16:14;0.80;;;0.80;;
10827;SDS011;5467;59.334;13.512;2022-12-07T09:18:41;0.90;;;0.90;;
10827;SDS011;5467;59.334;13.512;2022-12-07T09:21:08;0.83;;;0.83;;
10827;SDS011;5467;59.334;13.512;2022-12-07T09:23:35;0.80;;;0.80;;
10827;SDS011;5467;59.334;13.512;2022-12-07T09:26:04;1.10;;;1.10;;
10827;SDS011;5467;59.334;13.512;2022-12-07T09:28:31;1.00;;;1.00;;
10827;SDS011;5467;59.334;13.512;2022-12-07T09:30:58;0.90;;;0.90;;
10827;SDS011;5467;59.334;13.512;2022-12-07T09:33:26;0.90;;;0.90;;
10827;SDS011;5467;59.334;13.512;2022-12-07T09:35:53;0.90;;;0.90;;
10827;SDS011;5467;59.334;13.512;2022-12-07T09:38:20;1.10;;;1.00;;
10827;SDS011;5467;59.334;13.512;2022-12-07T09:40:47;1.00;;;1.00;;
10827;SDS011;5467;59.334;13.512;2022-12-07T09:43:16;0.90;;;0.90;;
10827;SDS011;5467;59.334;13.512;2022-12-07T09:45:45;0.83;;;0.83;;
10827;SDS011;5467;59.334;13.512;2022-12-07T09:48:15;0.90;;;0.90;;
10827;SDS011;5467;59.334;13.512;2022-12-07T09:50:44;0.80;;;0.80;;
10827;SDS011;5467;59.334;13.512;2022-12-07T09:53:14;0.80;;;0.80;;
10827;SDS011;5467;59.334;13.512;2022-12-07T09:55:46;1.00;;;1.00;;
10827;SDS011;5467;59.334;13.512;2022-12-07T10:00:47;0.90;;;0.90;;
10827;SDS011;5467;59.334;13.512;2022-12-07T10:03:15;0.80;;;0.80;;
10827;SDS011;5467;59.334;13.512;2022-12-07T10:05:42;0.80;;;0.80;;
10827;SDS011;5467;59.334;13.512;2022-12-07T10:08:12;0.90;;;0.90;;
10827;SDS011;5467;59.334;13.512;2022-12-07T10:10:41;0.80;;;0.80;;
10827;SDS011;5467;59.334;13.512;2022-12-07T10:13:08;0.90;;;0.90;;
10827;SDS011;5467;59.334;13.512;2022-12-07T10:15:42;0.80;;;0.80;;
10827;SDS011;5467;59.334;13.512;2022-12-07T10:18:18;0.80;;;0.80;;
10827;SDS011;5467;59.334;13.512;2022-12-07T10:21:00;0.90;;;0.90;;
10827;SDS011;5467;59.334;13.512;2022-12-07T10:23:29;0.80;;;0.80;;
10827;SDS011;5467;59.334;13.512;2022-12-07T10:25:56;0.80;;;0.80;;
10827;SDS011;5467;59.334;13.512;2022-12-07T10:28:27;0.80;;;0.80;;
10827;SDS011;5467;59.334;13.512;2022-12-07T10:31:14;0.80;;;0.80;;
10827;SDS011;5467;59.334;13.512;2022-12-07T10:33:48;0.80;;;0.80;;
10827;SDS011;5467;59.334;13.512;2022-12-07T10:36:17;0.90;;;0.90;;
10827;SDS011;5467;59.334;13.512;2022-12-07T10:38:46;0.70;;;0.70;;
10827;SDS011;5467;59.334;13.512;2022-12-07T10:41:14;0.80;;;0.80;;
10827;SDS011;5467;59.334;13.512;2022-12-07T10:43:49;0.70;;;0.70;;
10827;SDS011;5467;59.334;13.512;2022-12-07T10:52:50;0.80;;;0.80;;
10827;SDS011;5467;59.334;13.512;2022-12-07T10:55:41;0.80;;;0.80;;
10827;SDS011;5467;59.334;13.512;2022-12-07T10:58:27;0.80;;;0.80;;
10827;SDS011;5467;59.334;13.512;2022-12-07T11:01:12;0.70;;;0.70;;
10827;SDS011;5467;59.334;13.512;2022-12-07T11:06:44;0.70;;;0.70;;
10827;SDS011;5467;59.334;13.512;2022-12-07T11:12:16;0.80;;;0.80;;
10827;SDS011;5467;59.334;13.512;2022-12-07T11:14:53;0.70;;;0.70;;
10827;SDS011;5467;59.334;13.512;2022-12-07T11:17:24;0.70;;;0.70;;
10827;SDS011;5467;59.334;13.512;2022-12-07T11:20:02;1.03;;;1.03;;
10827;SDS011;5467;59.334;13.512;2022-12-07T11:22:41;0.73;;;0.73;;
10827;SDS011;5467;59.334;13.512;2022-12-07T11:25:15;0.90;;;0.90;;
10827;SDS011;5467;59.334;13.512;2022-12-07T11:27:52;0.87;;;0.87;;
10827;SDS011;5467;59.334;13.512;2022-12-07T11:30:33;0.80;;;0.80;;
10827;SDS011;5467;59.334;13.512;2022-12-07T11:33:09;0.80;;;0.80;;
10827;SDS011;5467;59.334;13.512;2022-12-07T11:35:43;0.70;;;0.70;;
10827;SDS011;5467;59.334;13.512;2022-12-07T11:38:26;1.10;;;1.10;;
10827;SDS011;5467;59.334;13.512;2022-12-07T11:41:00;0.70;;;0.70;;
10827;SDS011;5467;59.334;13.512;2022-12-07T11:43:41;0.70;;;0.70;;
10827;SDS011;5467;59.334;13.512;2022-12-07T11:46:17;0.80;;;0.80;;
10827;SDS011;5467;59.334;13.512;2022-12-07T11:48:45;0.80;;;0.80;;
10827;SDS011;5467;59.334;13.512;2022-12-07T11:51:16;0.80;;;0.80;;
10827;SDS011;5467;59.334;13.512;2022-12-07T11:53:48;0.80;;;0.80;;
10827;SDS011;5467;59.334;13.512;2022-12-07T11:56:19;0.80;;;0.80;;
10827;SDS011;5467;59.334;13.512;2022-12-07T11:58:49;1.27;;;0.80;;
10827;SDS011;5467;59.334;13.512;2022-12-07T12:01:29;0.83;;;0.83;;
10827;SDS011;5467;59.334;13.512;2022-12-07T12:04:05;1.00;;;1.00;;
10827;SDS011;5467;59.334;13.512;2022-12-07T12:06:42;1.03;;;1.03;;
10827;SDS011;5467;59.334;13.512;2022-12-07T12:09:12;0.80;;;0.80;;
10827;SDS011;5467;59.334;13.512;2022-12-07T12:11:56;0.90;;;0.90;;
10827;SDS011;5467;59.334;13.512;2022-12-07T12:14:49;0.80;;;0.80;;
10827;SDS011;5467;59.334;13.512;2022-12-07T12:17:45;0.80;;;0.80;;
10827;SDS011;5467;59.334;13.512;2022-12-07T12:20:26;0.80;;;0.80;;
10827;SDS011;5467;59.334;13.512;2022-12-07T12:22:58;0.90;;;0.90;;
10827;SDS011;5467;59.334;13.512;2022-12-07T12:25:36;0.70;;;0.70;;
10827;SDS011;5467;59.334;13.512;2022-12-07T12:28:15;0.80;;;0.80;;
10827;SDS011;5467;59.334;13.512;2022-12-07T12:30:49;0.70;;;0.70;;
10827;SDS011;5467;59.334;13.512;2022-12-07T12:33:32;0.87;;;0.87;;
10827;SDS011;5467;59.334;13.512;2022-12-07T12:38:49;0.90;;;0.90;;
10827;SDS011;5467;59.334;13.512;2022-12-07T12:47:52;0.90;;;0.90;;
10827;SDS011;5467;59.334;13.512;2022-12-07T12:50:22;0.90;;;0.90;;
10827;SDS011;5467;59.334;13.512;2022-12-07T13:01:55;0.80;;;0.80;;
10827;SDS011;5467;59.334;13.512;2022-12-07T13:04:40;1.30;;;1.20;;
10827;SDS011;5467;59.334;13.512;2022-12-07T13:10:31;1.10;;;1.10;;
10827;SDS011;5467;59.334;13.512;2022-12-07T13:13:02;0.80;;;0.80;;
10827;SDS011;5467;59.334;13.512;2022-12-07T13:15:36;1.13;;;1.13;;
10827;SDS011;5467;59.334;13.512;2022-12-07T13:18:21;1.00;;;1.00;;
10827;SDS011;5467;59.334;13.512;2022-12-07T13:20:54;1.00;;;1.00;;
10827;SDS011;5467;59.334;13.512;2022-12-07T13:23:29;0.83;;;0.83;;
10827;SDS011;5467;59.334;13.512;2022-12-07T13:26:06;0.80;;;0.80;;
10827;SDS011;5467;59.334;13.512;2022-12-07T13:28:40;0.80;;;0.80;;
10827;SDS011;5467;59.334;13.512;2022-12-07T13:31:16;1.00;;;1.00;;
10827;SDS011;5467;59.334;13.512;2022-12-07T13:33:49;0.80;;;0.80;;
10827;SDS011;5467;59.334;13.512;2022-12-07T13:36:21;0.80;;;0.80;;
10827;SDS011;5467;59.334;13.512;2022-12-07T13:38:53;0.80;;;0.80;;
10827;SDS011;5467;59.334;13.512;2022-12-07T13:41:22;0.90;;;0.90;;
10827;SDS011;5467;59.334;13.512;2022-12-07T13:43:51;0.90;;;0.90;;
10827;SDS011;5467;59.334;13.512;2022-12-07T13:46:28;1.00;;;1.00;;
10827;SDS011;5467;59.334;13.512;2022-12-07T13:49:02;1.10;;;1.00;;
10827;SDS011;5467;59.334;13.512;2022-12-07T13:51:41;0.80;;;0.80;;
10827;SDS011;5467;59.334;13.512;2022-12-07T13:54:09;0.90;;;0.90;;
10827;SDS011;5467;59.334;13.512;2022-12-07T13:56:37;0.90;;;0.90;;
10827;SDS011;5467;59.334;13.512;2022-12-07T13:59:05;0.90;;;0.90;;
10827;SDS011;5467;59.334;13.512;2022-12-07T14:01:41;0.93;;;0.93;;
10827;SDS011;5467;59.334;13.512;2022-12-07T14:04:17;0.87;;;0.87;;
10827;SDS011;5467;59.334;13.512;2022-12-07T14:06:59;1.20;;;1.10;;
10827;SDS011;5467;59.334;13.512;2022-12-07T14:09:28;1.00;;;1.00;;
10827;SDS011;5467;59.334;13.512;2022-12-07T14:11:56;0.90;;;0.90;;
10827;SDS011;5467;59.334;13.512;2022-12-07T14:14:25;1.13;;;1.10;;
10827;SDS011;5467;59.334;13.512;2022-12-07T14:16:59;0.90;;;0.90;;
10827;SDS011;5467;59.334;13.512;2022-12-07T14:19:41;0.90;;;0.90;;
10827;SDS011;5467;59.334;13.512;2022-12-07T14:22:24;1.00;;;1.00;;
10827;SDS011;5467;59.334;13.512;2022-12-07T14:25:16;0.80;;;0.80;;
10827;SDS011;5467;59.334;13.512;2022-12-07T14:27:52;1.00;;;1.00;;
10827;SDS011;5467;59.334;13.512;2022-12-07T14:30:22;0.90;;;0.90;;
10827;SDS011;5467;59.334;13.512;2022-12-07T14:32:52;1.00;;;1.00;;
10827;SDS011;5467;59.334;13.512;2022-12-07T14:35:21;1.00;;;1.00;;
10827;SDS011;5467;59.334;13.512;2022-12-07T14:37:49;1.03;;;1.03;;
10827;SDS011;5467;59.334;13.512;2022-12-07T14:40:16;0.90;;;0.90;;
10827;SDS011;5467;59.334;13.512;2022-12-07T14:42:45;0.97;;;0.97;;
10827;SDS011;5467;59.334;13.512;2022-12-07T14:45:15;0.80;;;0.80;;
10827;SDS011;5467;59.334;13.512;2022-12-07T14:47:44;0.93;;;0.93;;
10827;SDS011;5467;59.334;13.512;2022-12-07T14:50:14;0.90;;;0.90;;
10827;SDS011;5467;59.334;13.512;2022-12-07T14:52:43;0.80;;;0.80;;
10827;SDS011;5467;59.334;13.512;2022-12-07T14:55:14;0.90;;;0.90;;
10827;SDS011;5467;59.334;13.512;2022-12-07T14:57:46;1.00;;;1.00;;
10827;SDS011;5467;59.334;13.512;2022-12-07T15:00:14;1.00;;;1.00;;
10827;SDS011;5467;59.334;13.512;2022-12-07T15:02:42;0.90;;;0.90;;
10827;SDS011;5467;59.334;13.512;2022-12-07T15:05:09;0.90;;;0.90;;
10827;SDS011;5467;59.334;13.512;2022-12-07T15:07:38;0.90;;;0.90;;
10827;SDS011;5467;59.334;13.512;2022-12-07T15:10:06;0.90;;;0.90;;
10827;SDS011;5467;59.334;13.512;2022-12-07T15:12:40;0.90;;;0.90;;
10827;SDS011;5467;59.334;13.512;2022-12-07T15:15:08;0.80;;;0.80;;
10827;SDS011;5467;59.334;13.512;2022-12-07T15:17:35;0.90;;;0.90;;
10827;SDS011;5467;59.334;13.512;2022-12-07T15:20:02;0.80;;;0.80;;
10827;SDS011;5467;59.334;13.512;2022-12-07T15:22:30;0.80;;;0.80;;
10827;SDS011;5467;59.334;13.512;2022-12-07T15:24:58;0.80;;;0.80;;
10827;SDS011;5467;59.334;13.512;2022-12-07T15:27:26;0.90;;;0.90;;
10827;SDS011;5467;59.334;13.512;2022-12-07T15:29:53;0.80;;;0.80;;
10827;SDS011;5467;59.334;13.512;2022-12-07T15:32:20;0.97;;;0.97;;
10827;SDS011;5467;59.334;13.512;2022-12-07T15:34:48;0.90;;;0.90;;
10827;SDS011;5467;59.334;13.512;2022-12-07T15:37:15;1.13;;;1.13;;
10827;SDS011;5467;59.334;13.512;2022-12-07T15:39:42;0.80;;;0.80;;
10827;SDS011;5467;59.334;13.512;2022-12-07T15:42:10;0.80;;;0.80;;
10827;SDS011;5467;59.334;13.512;2022-12-07T15:44:38;0.90;;;0.90;;
10827;SDS011;5467;59.334;13.512;2022-12-07T15:47:22;1.20;;;1.20;;